SAV311Z EGBB-OBBI
Flight info
| Callsign | SAV311Z |
|---|---|
| Flight time | 6h 3m |
| Altitude | 39000 |
| Route | UNGAP P155 SIVDA P137 REDFA DCT TACHA DCT DIXAT DCT TIVUN DCT TESGA DCT BARSU DCT EXITI DCT LAMSI DCT SITNI DCT SASAL DCT BABIT DCT INRES DCT IBISI DCT SIN DCT RUGAS UN128 FSK UG18 MOCNA/N0481F410 UG18 MES UL609 RDS UL995 VANZA N134 TULEP N318 NEVOL Q255 LUDEP P559 KOBOK |
| Aircraft | A359/H-SDE2E3GHIJ3J4J5LM1ORWXY/LB1D1 |
Departure
| Time | 2026-04-29 08:05 |
|---|---|
| Airport | Birmingham Airport (EGBB) |
Arrival
| Time | 2026-04-29 14:08 |
|---|---|
| Airport | Bahrain International Airport (OBBI) |
| Time | Latitude | Longitude | Altitude | Speed | Heading |
|---|---|---|---|---|---|
| 2026-04-29 07:35 | 52.45195 | -1.73710 | 330 ft | 0 kts | 326° |
| 2026-04-29 07:56 | 52.45189 | -1.73703 | 330 ft | 2 kts | 320° |
| 2026-04-29 07:56 | 52.45180 | -1.73689 | 326 ft | 1 kts | 307° |
| 2026-04-29 07:56 | 52.45174 | -1.73674 | 325 ft | 3 kts | 306° |
| 2026-04-29 07:56 | 52.45164 | -1.73647 | 326 ft | 3 kts | 295° |
| 2026-04-29 07:57 | 52.45161 | -1.73636 | 325 ft | 0 kts | 290° |
| 2026-04-29 07:58 | 52.45156 | -1.73616 | 325 ft | 2 kts | 290° |
| 2026-04-29 07:58 | 52.45156 | -1.73614 | 325 ft | 0 kts | 290° |
| 2026-04-29 08:00 | 52.45153 | -1.73669 | 325 ft | 8 kts | 240° |
| 2026-04-29 08:00 | 52.45097 | -1.73709 | 326 ft | 10 kts | 200° |
| 2026-04-29 08:01 | 52.45029 | -1.73729 | 326 ft | 10 kts | 166° |
| 2026-04-29 08:01 | 52.44962 | -1.73665 | 325 ft | 12 kts | 147° |
| 2026-04-29 08:01 | 52.44884 | -1.73659 | 326 ft | 12 kts | 193° |
| 2026-04-29 08:01 | 52.44798 | -1.73696 | 328 ft | 13 kts | 196° |
| 2026-04-29 08:02 | 52.44705 | -1.73718 | 329 ft | 14 kts | 168° |
| 2026-04-29 08:02 | 52.44619 | -1.73629 | 326 ft | 15 kts | 145° |
| 2026-04-29 08:02 | 52.44527 | -1.73525 | 326 ft | 17 kts | 145° |
| 2026-04-29 08:02 | 52.44439 | -1.73414 | 327 ft | 12 kts | 139° |
| 2026-04-29 08:03 | 52.44389 | -1.73417 | 328 ft | 7 kts | 201° |
| 2026-04-29 08:03 | 52.44348 | -1.73474 | 326 ft | 8 kts | 236° |
| 2026-04-29 08:03 | 52.44323 | -1.73552 | 328 ft | 8 kts | 243° |
| 2026-04-29 08:03 | 52.44335 | -1.73630 | 327 ft | 7 kts | 320° |
| 2026-04-29 08:04 | 52.44424 | -1.73737 | 328 ft | 38 kts | 324° |
| 2026-04-29 08:04 | 52.44656 | -1.73990 | 329 ft | 82 kts | 327° |
| 2026-04-29 08:04 | 52.45575 | -1.75014 | 327 ft | 155 kts | 324° |
| 2026-04-29 08:04 | 52.46196 | -1.75747 | 555 ft | 166 kts | 330° |
| 2026-04-29 08:05 | 52.47381 | -1.77200 | 1583 ft | 163 kts | 330° |
| 2026-04-29 08:05 | 52.48321 | -1.78431 | 2040 ft | 180 kts | 330° |
| 2026-04-29 08:05 | 52.48987 | -1.79304 | 2354 ft | 189 kts | 330° |
| 2026-04-29 08:05 | 52.50047 | -1.80668 | 2896 ft | 200 kts | 330° |
| 2026-04-29 08:06 | 52.51551 | -1.82531 | 3636 ft | 200 kts | 343° |
| 2026-04-29 08:06 | 52.52409 | -1.82951 | 3977 ft | 190 kts | 4° |
| 2026-04-29 08:06 | 52.53621 | -1.82568 | 4506 ft | 170 kts | 39° |
| 2026-04-29 08:06 | 52.54334 | -1.81122 | 4946 ft | 167 kts | 75° |
| 2026-04-29 08:07 | 52.54309 | -1.78550 | 5373 ft | 180 kts | 101° |
| 2026-04-29 08:07 | 52.54131 | -1.77152 | 5610 ft | 189 kts | 101° |
| 2026-04-29 08:07 | 52.53856 | -1.74984 | 5946 ft | 204 kts | 101° |
| 2026-04-29 08:07 | 52.53488 | -1.71802 | 6603 ft | 216 kts | 99° |
| 2026-04-29 08:08 | 52.53327 | -1.70181 | 7022 ft | 218 kts | 98° |
| 2026-04-29 08:08 | 52.53122 | -1.67704 | 7640 ft | 219 kts | 96° |
| 2026-04-29 08:08 | 52.52806 | -1.65248 | 8271 ft | 221 kts | 109° |
| 2026-04-29 08:08 | 52.51960 | -1.63160 | 8891 ft | 227 kts | 133° |
| 2026-04-29 08:09 | 52.50664 | -1.61571 | 9431 ft | 234 kts | 140° |
| 2026-04-29 08:09 | 52.49332 | -1.60022 | 9991 ft | 240 kts | 140° |
| 2026-04-29 08:09 | 52.47942 | -1.58406 | 10531 ft | 245 kts | 140° |
| 2026-04-29 08:09 | 52.46616 | -1.56699 | 11102 ft | 245 kts | 134° |
| 2026-04-29 08:10 | 52.45434 | -1.54677 | 11554 ft | 248 kts | 119° |
| 2026-04-29 08:10 | 52.44819 | -1.51976 | 11841 ft | 259 kts | 99° |
| 2026-04-29 08:10 | 52.44647 | -1.48984 | 12129 ft | 274 kts | 91° |
| 2026-04-29 08:10 | 52.44653 | -1.45778 | 12417 ft | 288 kts | 89° |
| 2026-04-29 08:11 | 52.44675 | -1.42443 | 12601 ft | 301 kts | 90° |
| 2026-04-29 08:11 | 52.44638 | -1.38902 | 12863 ft | 314 kts | 92° |
| 2026-04-29 08:11 | 52.44523 | -1.35305 | 13162 ft | 325 kts | 94° |
| 2026-04-29 08:11 | 52.44343 | -1.31566 | 13636 ft | 330 kts | 95° |
| 2026-04-29 08:12 | 52.44127 | -1.27834 | 14153 ft | 333 kts | 95° |
| 2026-04-29 08:12 | 52.43893 | -1.24042 | 14627 ft | 335 kts | 95° |
| 2026-04-29 08:12 | 52.43651 | -1.20241 | 15131 ft | 337 kts | 96° |
| 2026-04-29 08:12 | 52.43388 | -1.16417 | 15643 ft | 338 kts | 96° |
| 2026-04-29 08:13 | 52.43108 | -1.12562 | 16158 ft | 340 kts | 96° |
| 2026-04-29 08:13 | 52.42825 | -1.08728 | 16664 ft | 341 kts | 96° |
| 2026-04-29 08:13 | 52.42539 | -1.04876 | 17160 ft | 343 kts | 96° |
| 2026-04-29 08:13 | 52.42249 | -1.00965 | 17700 ft | 345 kts | 96° |
| 2026-04-29 08:14 | 52.41962 | -0.97055 | 18183 ft | 347 kts | 96° |
| 2026-04-29 08:14 | 52.41673 | -0.93118 | 18664 ft | 348 kts | 96° |
| 2026-04-29 08:14 | 52.41385 | -0.89206 | 19060 ft | 351 kts | 96° |
| 2026-04-29 08:14 | 52.41088 | -0.85192 | 19458 ft | 353 kts | 96° |
| 2026-04-29 08:15 | 52.40794 | -0.81220 | 19849 ft | 355 kts | 96° |
| 2026-04-29 08:15 | 52.40497 | -0.77193 | 20247 ft | 357 kts | 96° |
| 2026-04-29 08:15 | 52.40321 | -0.73166 | 20648 ft | 358 kts | 93° |
| 2026-04-29 08:15 | 52.40196 | -0.69067 | 21035 ft | 361 kts | 92° |
| 2026-04-29 08:16 | 52.40093 | -0.64967 | 21418 ft | 363 kts | 92° |
| 2026-04-29 08:16 | 52.40001 | -0.60824 | 21802 ft | 365 kts | 92° |
| 2026-04-29 08:16 | 52.39914 | -0.56632 | 22162 ft | 367 kts | 92° |
| 2026-04-29 08:16 | 52.39829 | -0.52481 | 22540 ft | 369 kts | 92° |
| 2026-04-29 08:17 | 52.39739 | -0.48240 | 22903 ft | 371 kts | 92° |
| 2026-04-29 08:17 | 52.39649 | -0.44047 | 23255 ft | 373 kts | 92° |
| 2026-04-29 08:17 | 52.39554 | -0.39789 | 23605 ft | 376 kts | 92° |
| 2026-04-29 08:17 | 52.39455 | -0.35497 | 23944 ft | 378 kts | 92° |
| 2026-04-29 08:18 | 52.39354 | -0.31171 | 24243 ft | 380 kts | 92° |
| 2026-04-29 08:18 | 52.39252 | -0.26880 | 24550 ft | 381 kts | 92° |
| 2026-04-29 08:18 | 52.39147 | -0.22512 | 24874 ft | 382 kts | 92° |
| 2026-04-29 08:18 | 52.39040 | -0.18157 | 25183 ft | 383 kts | 92° |
| 2026-04-29 08:19 | 52.38933 | -0.13827 | 25493 ft | 385 kts | 92° |
| 2026-04-29 08:19 | 52.38822 | -0.09425 | 25808 ft | 386 kts | 92° |
| 2026-04-29 08:19 | 52.38709 | -0.05021 | 26129 ft | 388 kts | 92° |
| 2026-04-29 08:19 | 52.38595 | -0.00655 | 26452 ft | 389 kts | 92° |
| 2026-04-29 08:20 | 52.38478 | 0.03805 | 26796 ft | 390 kts | 92° |
| 2026-04-29 08:20 | 52.38360 | 0.08218 | 27132 ft | 392 kts | 92° |
| 2026-04-29 08:20 | 52.38238 | 0.12722 | 27484 ft | 394 kts | 92° |
| 2026-04-29 08:20 | 52.38115 | 0.17177 | 27841 ft | 395 kts | 92° |
| 2026-04-29 08:21 | 52.37990 | 0.21701 | 28211 ft | 397 kts | 92° |
| 2026-04-29 08:21 | 52.37863 | 0.26188 | 28576 ft | 398 kts | 92° |
| 2026-04-29 08:21 | 52.37733 | 0.30742 | 28942 ft | 400 kts | 92° |
| 2026-04-29 08:21 | 52.37602 | 0.35254 | 29319 ft | 402 kts | 92° |
| 2026-04-29 08:22 | 52.37466 | 0.39849 | 29681 ft | 404 kts | 92° |
| 2026-04-29 08:22 | 52.37329 | 0.44467 | 30072 ft | 405 kts | 92° |
| 2026-04-29 08:22 | 52.37191 | 0.49051 | 30443 ft | 407 kts | 92° |
| 2026-04-29 08:22 | 52.37048 | 0.53727 | 30756 ft | 409 kts | 92° |
| 2026-04-29 08:23 | 52.36904 | 0.58353 | 31083 ft | 411 kts | 92° |
| 2026-04-29 08:23 | 52.36757 | 0.63045 | 31390 ft | 413 kts | 92° |
| 2026-04-29 08:23 | 52.36609 | 0.67711 | 31690 ft | 415 kts | 92° |
| 2026-04-29 08:23 | 52.36456 | 0.72471 | 31993 ft | 417 kts | 92° |
| 2026-04-29 08:24 | 52.36303 | 0.77180 | 32285 ft | 419 kts | 92° |
| 2026-04-29 08:24 | 52.36145 | 0.81964 | 32574 ft | 420 kts | 92° |
| 2026-04-29 08:24 | 52.35986 | 0.86746 | 32850 ft | 422 kts | 92° |
| 2026-04-29 08:24 | 52.35823 | 0.91578 | 33135 ft | 424 kts | 92° |
| 2026-04-29 08:25 | 52.35659 | 0.96357 | 33371 ft | 426 kts | 92° |
| 2026-04-29 08:25 | 52.35491 | 1.01211 | 33637 ft | 427 kts | 92° |
| 2026-04-29 08:25 | 52.35322 | 1.06039 | 33898 ft | 429 kts | 92° |
| 2026-04-29 08:25 | 52.35149 | 1.10942 | 34150 ft | 431 kts | 92° |
| 2026-04-29 08:26 | 52.34972 | 1.15856 | 34478 ft | 430 kts | 92° |
| 2026-04-29 08:26 | 52.34797 | 1.20693 | 34744 ft | 430 kts | 92° |
| 2026-04-29 08:26 | 52.34616 | 1.25603 | 34970 ft | 432 kts | 92° |
| 2026-04-29 08:26 | 52.34436 | 1.30468 | 35194 ft | 433 kts | 92° |
| 2026-04-29 08:27 | 52.34250 | 1.35408 | 35426 ft | 434 kts | 92° |
| 2026-04-29 08:27 | 52.34064 | 1.40338 | 35667 ft | 435 kts | 92° |
| 2026-04-29 08:27 | 52.33873 | 1.45313 | 35904 ft | 436 kts | 92° |
| 2026-04-29 08:27 | 52.33683 | 1.50217 | 36133 ft | 437 kts | 92° |
| 2026-04-29 08:28 | 52.33488 | 1.55201 | 36363 ft | 438 kts | 92° |
| 2026-04-29 08:28 | 52.33292 | 1.60150 | 36577 ft | 439 kts | 92° |
| 2026-04-29 08:28 | 52.33092 | 1.65153 | 36803 ft | 440 kts | 92° |
| 2026-04-29 08:28 | 52.32889 | 1.70161 | 37016 ft | 441 kts | 92° |
| 2026-04-29 08:29 | 52.32686 | 1.75147 | 37220 ft | 442 kts | 92° |
| 2026-04-29 08:29 | 52.32478 | 1.80170 | 37429 ft | 443 kts | 92° |
| 2026-04-29 08:29 | 52.32270 | 1.85148 | 37637 ft | 443 kts | 92° |
| 2026-04-29 08:29 | 52.32056 | 1.90237 | 37832 ft | 444 kts | 92° |
| 2026-04-29 08:30 | 52.31843 | 1.95233 | 38025 ft | 445 kts | 93° |
| 2026-04-29 08:30 | 52.31407 | 2.05320 | 38395 ft | 447 kts | 93° |
| 2026-04-29 08:30 | 52.31183 | 2.10410 | 38576 ft | 447 kts | 93° |
| 2026-04-29 08:31 | 52.30957 | 2.15506 | 38755 ft | 448 kts | 93° |
| 2026-04-29 08:31 | 52.30732 | 2.20532 | 38921 ft | 449 kts | 93° |
| 2026-04-29 08:31 | 52.30502 | 2.25627 | 39083 ft | 450 kts | 93° |
| 2026-04-29 08:31 | 52.30269 | 2.30745 | 39207 ft | 450 kts | 93° |
| 2026-04-29 08:32 | 52.30033 | 2.35871 | 39331 ft | 451 kts | 93° |
| 2026-04-29 08:32 | 52.29557 | 2.46055 | 39380 ft | 452 kts | 93° |
| 2026-04-29 08:33 | 52.29069 | 2.56309 | 39384 ft | 452 kts | 93° |
| 2026-04-29 08:33 | 52.28573 | 2.66537 | 39379 ft | 453 kts | 93° |
| 2026-04-29 08:34 | 52.28068 | 2.76784 | 39378 ft | 453 kts | 93° |
| 2026-04-29 08:34 | 52.27553 | 2.87040 | 39379 ft | 453 kts | 93° |
| 2026-04-29 08:35 | 52.27029 | 2.97291 | 39378 ft | 454 kts | 93° |
| 2026-04-29 08:35 | 52.26496 | 3.07560 | 39382 ft | 454 kts | 93° |
| 2026-04-29 08:36 | 52.25957 | 3.17751 | 39381 ft | 454 kts | 93° |
| 2026-04-29 08:36 | 52.24698 | 3.27860 | 39380 ft | 458 kts | 105° |
| 2026-04-29 08:37 | 52.22567 | 3.37698 | 39376 ft | 460 kts | 108° |
| 2026-04-29 08:37 | 52.20255 | 3.47421 | 39375 ft | 460 kts | 109° |
| 2026-04-29 08:38 | 52.17938 | 3.57127 | 39375 ft | 461 kts | 109° |
| 2026-04-29 08:38 | 52.15635 | 3.66861 | 39373 ft | 462 kts | 108° |
| 2026-04-29 08:39 | 52.13321 | 3.76661 | 39370 ft | 462 kts | 109° |
| 2026-04-29 08:39 | 52.11013 | 3.86397 | 39369 ft | 463 kts | 109° |
| 2026-04-29 08:40 | 52.08685 | 3.96168 | 39372 ft | 464 kts | 109° |
| 2026-04-29 08:40 | 52.06343 | 4.05949 | 39371 ft | 464 kts | 109° |
| 2026-04-29 08:41 | 52.03990 | 4.15733 | 39376 ft | 465 kts | 109° |
| 2026-04-29 08:41 | 52.01627 | 4.25514 | 39375 ft | 466 kts | 109° |
| 2026-04-29 08:42 | 51.99258 | 4.35276 | 39373 ft | 467 kts | 109° |
| 2026-04-29 08:42 | 51.96874 | 4.45060 | 39378 ft | 468 kts | 109° |
| 2026-04-29 08:43 | 51.94463 | 4.54904 | 39372 ft | 468 kts | 109° |
| 2026-04-29 08:43 | 51.92058 | 4.64689 | 39373 ft | 469 kts | 109° |
| 2026-04-29 08:44 | 51.89626 | 4.74533 | 39375 ft | 470 kts | 109° |
| 2026-04-29 08:44 | 51.87192 | 4.84339 | 39364 ft | 471 kts | 109° |
| 2026-04-29 08:45 | 51.84746 | 4.94153 | 39360 ft | 471 kts | 109° |
| 2026-04-29 08:45 | 51.82291 | 5.03960 | 39366 ft | 472 kts | 109° |
| 2026-04-29 08:46 | 51.79818 | 5.13788 | 39364 ft | 473 kts | 109° |
| 2026-04-29 08:46 | 51.77343 | 5.23591 | 39360 ft | 473 kts | 109° |
| 2026-04-29 08:47 | 51.74840 | 5.33464 | 39350 ft | 473 kts | 110° |
| 2026-04-29 08:47 | 51.72341 | 5.43272 | 39341 ft | 474 kts | 110° |
| 2026-04-29 08:48 | 51.69833 | 5.53072 | 39354 ft | 475 kts | 110° |
| 2026-04-29 08:48 | 51.67298 | 5.62935 | 39354 ft | 475 kts | 110° |
| 2026-04-29 08:49 | 51.64773 | 5.72718 | 39342 ft | 476 kts | 110° |
| 2026-04-29 08:49 | 51.62209 | 5.82609 | 39346 ft | 477 kts | 110° |
| 2026-04-29 08:50 | 51.59658 | 5.92403 | 39350 ft | 478 kts | 110° |
| 2026-04-29 08:50 | 51.57078 | 6.02267 | 39345 ft | 479 kts | 110° |
| 2026-04-29 08:51 | 51.54488 | 6.12129 | 39348 ft | 479 kts | 110° |
| 2026-04-29 08:51 | 51.51880 | 6.22016 | 39350 ft | 480 kts | 110° |
| 2026-04-29 08:52 | 51.49271 | 6.31859 | 39349 ft | 481 kts | 110° |
| 2026-04-29 08:52 | 51.46642 | 6.41743 | 39350 ft | 482 kts | 110° |
| 2026-04-29 08:53 | 51.44013 | 6.51582 | 39336 ft | 482 kts | 110° |
| 2026-04-29 08:53 | 51.41350 | 6.61507 | 39347 ft | 483 kts | 110° |
| 2026-04-29 08:54 | 51.38695 | 6.71358 | 39350 ft | 483 kts | 111° |
| 2026-04-29 08:54 | 51.36027 | 6.81216 | 39347 ft | 484 kts | 111° |
| 2026-04-29 08:55 | 51.33346 | 6.91078 | 39349 ft | 484 kts | 111° |
| 2026-04-29 08:55 | 51.30652 | 7.00944 | 39348 ft | 485 kts | 111° |
| 2026-04-29 08:56 | 51.27941 | 7.10832 | 39345 ft | 485 kts | 111° |
| 2026-04-29 08:56 | 51.24660 | 7.20272 | 39342 ft | 489 kts | 120° |
| 2026-04-29 08:57 | 51.20995 | 7.29377 | 39335 ft | 490 kts | 121° |
| 2026-04-29 08:57 | 51.17245 | 7.38470 | 39331 ft | 491 kts | 121° |
| 2026-04-29 08:58 | 51.13495 | 7.47550 | 39331 ft | 492 kts | 121° |
| 2026-04-29 08:58 | 51.09739 | 7.56652 | 39333 ft | 493 kts | 121° |
| 2026-04-29 08:59 | 51.05959 | 7.65792 | 39327 ft | 493 kts | 121° |
| 2026-04-29 08:59 | 51.02186 | 7.74882 | 39330 ft | 494 kts | 121° |
| 2026-04-29 09:00 | 50.98396 | 7.83984 | 39324 ft | 495 kts | 121° |
| 2026-04-29 09:00 | 50.94610 | 7.93039 | 39313 ft | 495 kts | 121° |
| 2026-04-29 09:01 | 50.90042 | 8.01282 | 39311 ft | 499 kts | 136° |
| 2026-04-29 09:01 | 50.84815 | 8.08527 | 39299 ft | 501 kts | 138° |
| 2026-04-29 09:02 | 50.79475 | 8.15606 | 39293 ft | 503 kts | 139° |
| 2026-04-29 09:02 | 50.74115 | 8.22697 | 39294 ft | 503 kts | 138° |
| 2026-04-29 09:03 | 50.68757 | 8.29814 | 39299 ft | 504 kts | 138° |
| 2026-04-29 09:03 | 50.63392 | 8.36943 | 39302 ft | 504 kts | 139° |
| 2026-04-29 09:04 | 50.58047 | 8.44025 | 39316 ft | 504 kts | 139° |
| 2026-04-29 09:04 | 50.52680 | 8.51112 | 39327 ft | 504 kts | 139° |
| 2026-04-29 09:05 | 50.47340 | 8.58298 | 39312 ft | 503 kts | 134° |
| 2026-04-29 09:05 | 50.43142 | 8.66904 | 39316 ft | 498 kts | 115° |
| 2026-04-29 09:06 | 50.40146 | 8.76684 | 39314 ft | 498 kts | 112° |
| 2026-04-29 09:06 | 50.37335 | 8.86657 | 39312 ft | 498 kts | 112° |
| 2026-04-29 09:07 | 50.34541 | 8.96537 | 39312 ft | 499 kts | 112° |
| 2026-04-29 09:07 | 50.32164 | 9.04804 | 39307 ft | 499 kts | 112° |
| 2026-04-29 09:08 | 50.29287 | 9.14709 | 39306 ft | 500 kts | 112° |
| 2026-04-29 09:08 | 50.26406 | 9.24570 | 39302 ft | 501 kts | 113° |
| 2026-04-29 09:09 | 50.23495 | 9.34505 | 39299 ft | 501 kts | 113° |
| 2026-04-29 09:09 | 50.20592 | 9.44375 | 39298 ft | 501 kts | 113° |
| 2026-04-29 09:10 | 50.17665 | 9.54283 | 39300 ft | 502 kts | 113° |
| 2026-04-29 09:10 | 50.14749 | 9.64115 | 39300 ft | 502 kts | 113° |
| 2026-04-29 09:11 | 50.11817 | 9.73961 | 39304 ft | 502 kts | 113° |
| 2026-04-29 09:11 | 50.08862 | 9.83846 | 39301 ft | 502 kts | 113° |
| 2026-04-29 09:12 | 50.05910 | 9.93679 | 39303 ft | 502 kts | 114° |
| 2026-04-29 09:12 | 50.02940 | 10.03538 | 39300 ft | 503 kts | 114° |
| 2026-04-29 09:13 | 49.99965 | 10.13363 | 39300 ft | 503 kts | 114° |
| 2026-04-29 09:13 | 49.96974 | 10.23209 | 39300 ft | 504 kts | 114° |
| 2026-04-29 09:14 | 49.93990 | 10.32990 | 39301 ft | 504 kts | 114° |
| 2026-04-29 09:14 | 49.90955 | 10.42813 | 39300 ft | 505 kts | 115° |
| 2026-04-29 09:15 | 49.87641 | 10.52396 | 39295 ft | 506 kts | 117° |
| 2026-04-29 09:15 | 49.84229 | 10.61919 | 39294 ft | 506 kts | 117° |
| 2026-04-29 09:16 | 49.80842 | 10.71471 | 39293 ft | 507 kts | 117° |
| 2026-04-29 09:16 | 49.77455 | 10.81101 | 39285 ft | 507 kts | 117° |
| 2026-04-29 09:17 | 49.74100 | 10.90636 | 39276 ft | 507 kts | 117° |
| 2026-04-29 09:17 | 49.70712 | 11.00226 | 39272 ft | 508 kts | 117° |
| 2026-04-29 09:18 | 49.67314 | 11.09800 | 39269 ft | 508 kts | 117° |
| 2026-04-29 09:18 | 49.63913 | 11.19345 | 39269 ft | 508 kts | 117° |
| 2026-04-29 09:19 | 49.60499 | 11.28890 | 39270 ft | 509 kts | 117° |
| 2026-04-29 09:19 | 49.57074 | 11.38434 | 39278 ft | 509 kts | 118° |
| 2026-04-29 09:20 | 49.53542 | 11.47889 | 39277 ft | 510 kts | 121° |
| 2026-04-29 09:20 | 49.49764 | 11.57111 | 39282 ft | 511 kts | 122° |
| 2026-04-29 09:21 | 49.45964 | 11.66314 | 39271 ft | 511 kts | 121° |
| 2026-04-29 09:21 | 49.42165 | 11.75561 | 39280 ft | 511 kts | 122° |
| 2026-04-29 09:22 | 49.38354 | 11.84728 | 39263 ft | 512 kts | 122° |
| 2026-04-29 09:22 | 49.34501 | 11.93957 | 39271 ft | 512 kts | 122° |
| 2026-04-29 09:23 | 49.30671 | 12.03115 | 39268 ft | 512 kts | 122° |
| 2026-04-29 09:23 | 49.26828 | 12.12280 | 39267 ft | 513 kts | 122° |
| 2026-04-29 09:24 | 49.22954 | 12.21489 | 39264 ft | 513 kts | 122° |
| 2026-04-29 09:24 | 49.19089 | 12.30645 | 39258 ft | 514 kts | 122° |
| 2026-04-29 09:25 | 49.15223 | 12.39770 | 39265 ft | 514 kts | 122° |
| 2026-04-29 09:25 | 49.11318 | 12.48957 | 39252 ft | 514 kts | 122° |
| 2026-04-29 09:26 | 49.07420 | 12.58096 | 39251 ft | 515 kts | 122° |
| 2026-04-29 09:26 | 49.03502 | 12.67249 | 39245 ft | 515 kts | 123° |
| 2026-04-29 09:27 | 48.99589 | 12.76362 | 39244 ft | 516 kts | 123° |
| 2026-04-29 09:27 | 48.95646 | 12.85511 | 39243 ft | 516 kts | 123° |
| 2026-04-29 09:28 | 48.91712 | 12.94608 | 39242 ft | 517 kts | 123° |
| 2026-04-29 09:28 | 48.87755 | 13.03729 | 39242 ft | 517 kts | 123° |
| 2026-04-29 09:29 | 48.83796 | 13.12822 | 39238 ft | 518 kts | 123° |
| 2026-04-29 09:29 | 48.77803 | 13.26528 | 39237 ft | 519 kts | 123° |
| 2026-04-29 09:30 | 48.73806 | 13.35631 | 39238 ft | 519 kts | 123° |
| 2026-04-29 09:30 | 48.69829 | 13.44660 | 39238 ft | 519 kts | 123° |
| 2026-04-29 09:31 | 48.65801 | 13.53774 | 39242 ft | 520 kts | 123° |
| 2026-04-29 09:31 | 48.61789 | 13.62818 | 39245 ft | 520 kts | 123° |
| 2026-04-29 09:32 | 48.57733 | 13.71933 | 39240 ft | 521 kts | 124° |
| 2026-04-29 09:32 | 48.53695 | 13.80974 | 39245 ft | 521 kts | 124° |
| 2026-04-29 09:33 | 48.49604 | 13.90038 | 39245 ft | 521 kts | 124° |
| 2026-04-29 09:33 | 48.45432 | 13.98964 | 39244 ft | 522 kts | 125° |
| 2026-04-29 09:34 | 48.41262 | 14.07827 | 39244 ft | 522 kts | 125° |
| 2026-04-29 09:34 | 48.37071 | 14.16749 | 39241 ft | 522 kts | 125° |
| 2026-04-29 09:35 | 48.32880 | 14.25666 | 39238 ft | 522 kts | 125° |
| 2026-04-29 09:35 | 48.28696 | 14.34548 | 39242 ft | 522 kts | 125° |
| 2026-04-29 09:36 | 48.24471 | 14.43484 | 39239 ft | 523 kts | 126° |
| 2026-04-29 09:36 | 48.20269 | 14.52340 | 39244 ft | 523 kts | 126° |
| 2026-04-29 09:37 | 48.16067 | 14.61168 | 39243 ft | 523 kts | 126° |
| 2026-04-29 09:37 | 48.11827 | 14.70046 | 39245 ft | 523 kts | 126° |
| 2026-04-29 09:38 | 48.07581 | 14.78910 | 39247 ft | 523 kts | 126° |
| 2026-04-29 09:38 | 48.03354 | 14.87702 | 39245 ft | 523 kts | 126° |
| 2026-04-29 09:39 | 47.99099 | 14.96523 | 39240 ft | 524 kts | 126° |
| 2026-04-29 09:39 | 47.94834 | 15.05340 | 39239 ft | 524 kts | 126° |
| 2026-04-29 09:40 | 47.90558 | 15.14146 | 39236 ft | 525 kts | 127° |
| 2026-04-29 09:40 | 47.86272 | 15.22950 | 39227 ft | 525 kts | 127° |
| 2026-04-29 09:41 | 47.81993 | 15.31713 | 39230 ft | 526 kts | 127° |
| 2026-04-29 09:41 | 47.77677 | 15.40520 | 39226 ft | 526 kts | 127° |
| 2026-04-29 09:42 | 47.73361 | 15.49300 | 39229 ft | 527 kts | 127° |
| 2026-04-29 09:42 | 47.69011 | 15.58116 | 39228 ft | 528 kts | 127° |
| 2026-04-29 09:43 | 47.64668 | 15.66893 | 39230 ft | 529 kts | 127° |
| 2026-04-29 09:43 | 47.60312 | 15.75668 | 39230 ft | 530 kts | 127° |
| 2026-04-29 09:44 | 47.55942 | 15.84442 | 39231 ft | 531 kts | 127° |
| 2026-04-29 09:44 | 47.51564 | 15.93204 | 39234 ft | 531 kts | 127° |
| 2026-04-29 09:45 | 47.47174 | 16.01964 | 39240 ft | 532 kts | 127° |
| 2026-04-29 09:45 | 47.42736 | 16.10790 | 39244 ft | 532 kts | 127° |
| 2026-04-29 09:46 | 47.38343 | 16.19499 | 39241 ft | 533 kts | 127° |
| 2026-04-29 09:46 | 47.33888 | 16.28304 | 39245 ft | 533 kts | 128° |
| 2026-04-29 09:47 | 47.29456 | 16.37036 | 39250 ft | 534 kts | 128° |
| 2026-04-29 09:47 | 47.25001 | 16.45783 | 39250 ft | 534 kts | 128° |
| 2026-04-29 09:48 | 47.20533 | 16.54529 | 39255 ft | 534 kts | 128° |
| 2026-04-29 09:48 | 47.16082 | 16.63213 | 39253 ft | 534 kts | 128° |
| 2026-04-29 09:49 | 47.11608 | 16.71914 | 39257 ft | 535 kts | 128° |
| 2026-04-29 09:49 | 47.07117 | 16.80624 | 39252 ft | 535 kts | 128° |
| 2026-04-29 09:50 | 47.02611 | 16.89334 | 39252 ft | 536 kts | 128° |
| 2026-04-29 09:50 | 46.98098 | 16.98028 | 39258 ft | 536 kts | 128° |
| 2026-04-29 09:51 | 46.93604 | 17.06662 | 39259 ft | 536 kts | 128° |
| 2026-04-29 09:51 | 46.89055 | 17.15370 | 39262 ft | 537 kts | 128° |
| 2026-04-29 09:52 | 46.84510 | 17.24046 | 39263 ft | 537 kts | 128° |
| 2026-04-29 09:52 | 46.79970 | 17.32684 | 39264 ft | 537 kts | 128° |
| 2026-04-29 09:53 | 46.75430 | 17.41295 | 39264 ft | 538 kts | 128° |
| 2026-04-29 09:53 | 46.70845 | 17.49966 | 39261 ft | 538 kts | 129° |
| 2026-04-29 09:54 | 46.66272 | 17.58586 | 39255 ft | 538 kts | 129° |
| 2026-04-29 09:54 | 46.61685 | 17.67205 | 39256 ft | 539 kts | 129° |
| 2026-04-29 09:55 | 46.57113 | 17.75771 | 39255 ft | 539 kts | 129° |
| 2026-04-29 09:55 | 46.52479 | 17.84425 | 39253 ft | 540 kts | 129° |
| 2026-04-29 09:56 | 46.47897 | 17.92956 | 39251 ft | 540 kts | 129° |
| 2026-04-29 09:56 | 46.43272 | 18.01541 | 39251 ft | 540 kts | 129° |
| 2026-04-29 09:57 | 46.38624 | 18.10142 | 39251 ft | 540 kts | 129° |
| 2026-04-29 09:57 | 46.33983 | 18.18703 | 39250 ft | 541 kts | 129° |
| 2026-04-29 09:58 | 46.29355 | 18.27215 | 39245 ft | 541 kts | 129° |
| 2026-04-29 09:58 | 46.24700 | 18.35750 | 39244 ft | 540 kts | 129° |
| 2026-04-29 09:59 | 46.20050 | 18.44249 | 39242 ft | 540 kts | 129° |
| 2026-04-29 09:59 | 46.15368 | 18.52780 | 39241 ft | 540 kts | 129° |
| 2026-04-29 10:00 | 46.10712 | 18.61240 | 39266 ft | 541 kts | 129° |
| 2026-04-29 10:00 | 46.08358 | 18.65506 | 39459 ft | 541 kts | 129° |
| 2026-04-29 10:00 | 46.06012 | 18.69752 | 39676 ft | 539 kts | 129° |
| 2026-04-29 10:01 | 46.03701 | 18.73929 | 39873 ft | 538 kts | 129° |
| 2026-04-29 10:01 | 46.01346 | 18.78179 | 40062 ft | 538 kts | 129° |
| 2026-04-29 10:01 | 45.99035 | 18.82341 | 40214 ft | 537 kts | 129° |
| 2026-04-29 10:01 | 45.96683 | 18.86572 | 40394 ft | 537 kts | 129° |
| 2026-04-29 10:02 | 45.94298 | 18.90651 | 40528 ft | 536 kts | 135° |
| 2026-04-29 10:02 | 45.91555 | 18.94263 | 40673 ft | 532 kts | 145° |
| 2026-04-29 10:02 | 45.88621 | 18.97432 | 40817 ft | 531 kts | 147° |
| 2026-04-29 10:02 | 45.85583 | 19.00502 | 40940 ft | 530 kts | 148° |
| 2026-04-29 10:03 | 45.82559 | 19.03453 | 41072 ft | 530 kts | 149° |
| 2026-04-29 10:03 | 45.79499 | 19.06397 | 41189 ft | 530 kts | 149° |
| 2026-04-29 10:03 | 45.73343 | 19.12315 | 41229 ft | 531 kts | 149° |
| 2026-04-29 10:04 | 45.67234 | 19.18229 | 41226 ft | 531 kts | 148° |
| 2026-04-29 10:04 | 45.61131 | 19.24151 | 41210 ft | 531 kts | 148° |
| 2026-04-29 10:05 | 45.55030 | 19.30048 | 41219 ft | 530 kts | 149° |
| 2026-04-29 10:05 | 45.48871 | 19.35741 | 41218 ft | 530 kts | 150° |
| 2026-04-29 10:06 | 45.43689 | 19.40446 | 41212 ft | 529 kts | 150° |
| 2026-04-29 10:06 | 45.37497 | 19.46085 | 41213 ft | 529 kts | 150° |
| 2026-04-29 10:07 | 45.31284 | 19.51761 | 41210 ft | 529 kts | 150° |
| 2026-04-29 10:07 | 45.25130 | 19.57379 | 41207 ft | 529 kts | 150° |
| 2026-04-29 10:08 | 45.18910 | 19.63043 | 41205 ft | 529 kts | 150° |
| 2026-04-29 10:08 | 45.12724 | 19.68660 | 41200 ft | 528 kts | 150° |
| 2026-04-29 10:09 | 45.06543 | 19.74257 | 41195 ft | 528 kts | 150° |
| 2026-04-29 10:09 | 45.00337 | 19.79862 | 41199 ft | 528 kts | 150° |
| 2026-04-29 10:10 | 44.94159 | 19.85427 | 41198 ft | 528 kts | 150° |
| 2026-04-29 10:10 | 44.87975 | 19.90984 | 41197 ft | 528 kts | 150° |
| 2026-04-29 10:11 | 44.81790 | 19.96527 | 41198 ft | 528 kts | 151° |
| 2026-04-29 10:11 | 44.75574 | 20.02083 | 41199 ft | 527 kts | 151° |
| 2026-04-29 10:12 | 44.69375 | 20.07610 | 41200 ft | 527 kts | 151° |
| 2026-04-29 10:12 | 44.63188 | 20.13110 | 41194 ft | 527 kts | 151° |
| 2026-04-29 10:13 | 44.56999 | 20.18600 | 41187 ft | 527 kts | 151° |
| 2026-04-29 10:13 | 44.50800 | 20.24085 | 41180 ft | 527 kts | 151° |
| 2026-04-29 10:14 | 44.44637 | 20.29524 | 41173 ft | 526 kts | 151° |
| 2026-04-29 10:14 | 44.38416 | 20.35000 | 41169 ft | 526 kts | 151° |
| 2026-04-29 10:15 | 44.32218 | 20.40442 | 41165 ft | 526 kts | 151° |
| 2026-04-29 10:15 | 44.26014 | 20.45874 | 41168 ft | 526 kts | 151° |
| 2026-04-29 10:16 | 44.19834 | 20.51273 | 41161 ft | 526 kts | 151° |
| 2026-04-29 10:16 | 44.13637 | 20.56673 | 41158 ft | 525 kts | 151° |
| 2026-04-29 10:17 | 44.07434 | 20.62066 | 41157 ft | 525 kts | 151° |
| 2026-04-29 10:17 | 44.01246 | 20.67430 | 41146 ft | 525 kts | 151° |
| 2026-04-29 10:18 | 43.95058 | 20.72782 | 41155 ft | 525 kts | 151° |
| 2026-04-29 10:18 | 43.88879 | 20.78112 | 41155 ft | 525 kts | 151° |
| 2026-04-29 10:19 | 43.82653 | 20.83470 | 41150 ft | 525 kts | 151° |
| 2026-04-29 10:19 | 43.76465 | 20.88781 | 41148 ft | 524 kts | 151° |
| 2026-04-29 10:20 | 43.70274 | 20.94084 | 41142 ft | 524 kts | 151° |
| 2026-04-29 10:20 | 43.64071 | 20.99384 | 41134 ft | 524 kts | 151° |
| 2026-04-29 10:21 | 43.57870 | 21.04668 | 41131 ft | 524 kts | 151° |
| 2026-04-29 10:21 | 43.51651 | 21.09954 | 41127 ft | 523 kts | 151° |
| 2026-04-29 10:22 | 43.45452 | 21.15211 | 41122 ft | 523 kts | 151° |
| 2026-04-29 10:22 | 43.39277 | 21.20435 | 41126 ft | 523 kts | 151° |
| 2026-04-29 10:23 | 43.33089 | 21.25658 | 41120 ft | 523 kts | 152° |
| 2026-04-29 10:23 | 43.26872 | 21.30891 | 41117 ft | 523 kts | 152° |
| 2026-04-29 10:24 | 43.20682 | 21.36088 | 41112 ft | 522 kts | 152° |
| 2026-04-29 10:24 | 43.14497 | 21.41270 | 41109 ft | 522 kts | 152° |
| 2026-04-29 10:25 | 43.08292 | 21.46455 | 41118 ft | 522 kts | 152° |
| 2026-04-29 10:25 | 43.02102 | 21.51615 | 41111 ft | 522 kts | 152° |
| 2026-04-29 10:26 | 42.95946 | 21.56736 | 41105 ft | 521 kts | 152° |
| 2026-04-29 10:26 | 42.89727 | 21.61896 | 41098 ft | 521 kts | 152° |
| 2026-04-29 10:27 | 42.80453 | 21.69570 | 41097 ft | 521 kts | 152° |
| 2026-04-29 10:28 | 42.74255 | 21.74683 | 41097 ft | 520 kts | 152° |
| 2026-04-29 10:28 | 42.68049 | 21.79790 | 41096 ft | 520 kts | 152° |
| 2026-04-29 10:29 | 42.61869 | 21.84862 | 41089 ft | 520 kts | 152° |
| 2026-04-29 10:29 | 42.55659 | 21.89950 | 41094 ft | 520 kts | 152° |
| 2026-04-29 10:30 | 42.49505 | 21.94979 | 41091 ft | 519 kts | 152° |
| 2026-04-29 10:30 | 42.43305 | 22.00035 | 41092 ft | 519 kts | 152° |
| 2026-04-29 10:31 | 42.37108 | 22.05074 | 41094 ft | 519 kts | 152° |
| 2026-04-29 10:31 | 42.30956 | 22.10067 | 41090 ft | 518 kts | 152° |
| 2026-04-29 10:32 | 42.24776 | 22.15069 | 41095 ft | 518 kts | 152° |
| 2026-04-29 10:32 | 42.18563 | 22.20087 | 41097 ft | 518 kts | 152° |
| 2026-04-29 10:33 | 42.12409 | 22.25046 | 41092 ft | 518 kts | 152° |
| 2026-04-29 10:33 | 42.06213 | 22.30027 | 41093 ft | 518 kts | 152° |
| 2026-04-29 10:34 | 42.00035 | 22.34984 | 41092 ft | 518 kts | 152° |
| 2026-04-29 10:34 | 41.93784 | 22.39748 | 41094 ft | 516 kts | 156° |
| 2026-04-29 10:35 | 41.87316 | 22.43899 | 41095 ft | 515 kts | 158° |
| 2026-04-29 10:35 | 41.80823 | 22.47987 | 41093 ft | 516 kts | 157° |
| 2026-04-29 10:36 | 41.74347 | 22.52168 | 41092 ft | 516 kts | 157° |
| 2026-04-29 10:36 | 41.67923 | 22.56371 | 41103 ft | 516 kts | 157° |
| 2026-04-29 10:37 | 41.61464 | 22.60601 | 41100 ft | 516 kts | 156° |
| 2026-04-29 10:37 | 41.55035 | 22.64799 | 41107 ft | 515 kts | 157° |
| 2026-04-29 10:38 | 41.48578 | 22.69001 | 41103 ft | 515 kts | 157° |
| 2026-04-29 10:38 | 41.42150 | 22.73173 | 41103 ft | 515 kts | 157° |
| 2026-04-29 10:39 | 41.35692 | 22.77357 | 41097 ft | 515 kts | 157° |
| 2026-04-29 10:39 | 41.29487 | 22.82134 | 41111 ft | 517 kts | 150° |
| 2026-04-29 10:40 | 41.23456 | 22.87320 | 41097 ft | 518 kts | 149° |
| 2026-04-29 10:40 | 41.17434 | 22.92574 | 41112 ft | 518 kts | 149° |
| 2026-04-29 10:41 | 41.11433 | 22.97797 | 41096 ft | 518 kts | 149° |
| 2026-04-29 10:41 | 41.05693 | 23.03624 | 41110 ft | 520 kts | 143° |
| 2026-04-29 10:42 | 41.00093 | 23.09640 | 41105 ft | 520 kts | 142° |
| 2026-04-29 10:42 | 40.94467 | 23.15726 | 41111 ft | 520 kts | 142° |
| 2026-04-29 10:43 | 40.88881 | 23.21741 | 41109 ft | 520 kts | 143° |
| 2026-04-29 10:43 | 40.83311 | 23.27707 | 41109 ft | 520 kts | 143° |
| 2026-04-29 10:44 | 40.77698 | 23.33705 | 41108 ft | 519 kts | 143° |
| 2026-04-29 10:44 | 40.72100 | 23.39680 | 41112 ft | 519 kts | 143° |
| 2026-04-29 10:45 | 40.66459 | 23.45674 | 41115 ft | 518 kts | 143° |
| 2026-04-29 10:45 | 40.60844 | 23.51628 | 41118 ft | 518 kts | 143° |
| 2026-04-29 10:46 | 40.55265 | 23.57535 | 41122 ft | 518 kts | 143° |
| 2026-04-29 10:46 | 40.49619 | 23.63501 | 41125 ft | 518 kts | 143° |
| 2026-04-29 10:47 | 40.44029 | 23.69397 | 41129 ft | 517 kts | 143° |
| 2026-04-29 10:47 | 40.38398 | 23.75320 | 41131 ft | 517 kts | 143° |
| 2026-04-29 10:48 | 40.32826 | 23.81168 | 41126 ft | 516 kts | 143° |
| 2026-04-29 10:48 | 40.27218 | 23.87042 | 41130 ft | 516 kts | 143° |
| 2026-04-29 10:49 | 40.21578 | 23.92937 | 41128 ft | 516 kts | 143° |
| 2026-04-29 10:49 | 40.15973 | 23.98782 | 41133 ft | 516 kts | 143° |
| 2026-04-29 10:50 | 40.10391 | 24.04591 | 41133 ft | 516 kts | 143° |
| 2026-04-29 10:50 | 40.04771 | 24.10427 | 41134 ft | 515 kts | 143° |
| 2026-04-29 10:51 | 39.99152 | 24.16249 | 41132 ft | 515 kts | 143° |
| 2026-04-29 10:51 | 39.93528 | 24.22062 | 41130 ft | 515 kts | 143° |
| 2026-04-29 10:52 | 39.87911 | 24.27857 | 41129 ft | 515 kts | 143° |
| 2026-04-29 10:52 | 39.82292 | 24.33641 | 41129 ft | 515 kts | 143° |
| 2026-04-29 10:53 | 39.76676 | 24.39410 | 41129 ft | 516 kts | 143° |
| 2026-04-29 10:53 | 39.71051 | 24.45176 | 41132 ft | 516 kts | 143° |
| 2026-04-29 10:54 | 39.65402 | 24.50953 | 41128 ft | 516 kts | 143° |
| 2026-04-29 10:54 | 39.59767 | 24.56705 | 41132 ft | 516 kts | 143° |
| 2026-04-29 10:55 | 39.54138 | 24.62437 | 41126 ft | 516 kts | 143° |
| 2026-04-29 10:55 | 39.48466 | 24.68202 | 41130 ft | 517 kts | 143° |
| 2026-04-29 10:56 | 39.42837 | 24.73911 | 41125 ft | 517 kts | 143° |
| 2026-04-29 10:56 | 39.37192 | 24.79623 | 41122 ft | 517 kts | 143° |
| 2026-04-29 10:57 | 39.31518 | 24.85353 | 41123 ft | 517 kts | 143° |
| 2026-04-29 10:57 | 39.25835 | 24.91080 | 41123 ft | 517 kts | 143° |
| 2026-04-29 10:58 | 39.20168 | 24.96779 | 41116 ft | 517 kts | 144° |
| 2026-04-29 10:58 | 39.14505 | 25.02461 | 41120 ft | 517 kts | 144° |
| 2026-04-29 10:59 | 39.08819 | 25.08155 | 41119 ft | 517 kts | 144° |
| 2026-04-29 10:59 | 39.03127 | 25.13843 | 41117 ft | 518 kts | 144° |
| 2026-04-29 11:00 | 38.97433 | 25.19521 | 41116 ft | 518 kts | 144° |
| 2026-04-29 11:00 | 38.91766 | 25.25161 | 41117 ft | 518 kts | 144° |
| 2026-04-29 11:01 | 38.86056 | 25.30831 | 41112 ft | 518 kts | 144° |
| 2026-04-29 11:01 | 38.80353 | 25.36482 | 41113 ft | 518 kts | 144° |
| 2026-04-29 11:02 | 38.74680 | 25.42093 | 41109 ft | 518 kts | 144° |
| 2026-04-29 11:02 | 38.68952 | 25.47745 | 41107 ft | 518 kts | 144° |
| 2026-04-29 11:03 | 38.64208 | 25.52418 | 41106 ft | 518 kts | 144° |
| 2026-04-29 11:03 | 38.58478 | 25.58052 | 41105 ft | 518 kts | 144° |
| 2026-04-29 11:04 | 38.51850 | 25.64555 | 41100 ft | 518 kts | 144° |
| 2026-04-29 11:04 | 38.47088 | 25.69216 | 41103 ft | 518 kts | 144° |
| 2026-04-29 11:05 | 38.41351 | 25.74821 | 41092 ft | 518 kts | 144° |
| 2026-04-29 11:05 | 38.35655 | 25.80376 | 41088 ft | 518 kts | 144° |
| 2026-04-29 11:06 | 38.29925 | 25.85952 | 41085 ft | 518 kts | 144° |
| 2026-04-29 11:06 | 38.24180 | 25.91537 | 41076 ft | 518 kts | 144° |
| 2026-04-29 11:07 | 38.18705 | 25.97432 | 41079 ft | 519 kts | 140° |
| 2026-04-29 11:07 | 38.13321 | 26.03587 | 41079 ft | 519 kts | 140° |
| 2026-04-29 11:08 | 38.07948 | 26.09647 | 41081 ft | 520 kts | 140° |
| 2026-04-29 11:08 | 38.02503 | 26.15692 | 41080 ft | 519 kts | 141° |
| 2026-04-29 11:09 | 37.97041 | 26.21699 | 41078 ft | 519 kts | 141° |
| 2026-04-29 11:09 | 37.91570 | 26.27699 | 41075 ft | 519 kts | 141° |
| 2026-04-29 11:10 | 37.86098 | 26.33697 | 41071 ft | 519 kts | 141° |
| 2026-04-29 11:10 | 37.80669 | 26.39633 | 41065 ft | 520 kts | 141° |
| 2026-04-29 11:11 | 37.75186 | 26.45596 | 41065 ft | 520 kts | 141° |
| 2026-04-29 11:11 | 37.69700 | 26.51552 | 41049 ft | 520 kts | 141° |
| 2026-04-29 11:12 | 37.64208 | 26.57521 | 41044 ft | 520 kts | 141° |
| 2026-04-29 11:12 | 37.58736 | 26.63460 | 41037 ft | 520 kts | 142° |
| 2026-04-29 11:13 | 37.53266 | 26.69386 | 41035 ft | 520 kts | 142° |
| 2026-04-29 11:13 | 37.47763 | 26.75334 | 41033 ft | 520 kts | 142° |
| 2026-04-29 11:14 | 37.42282 | 26.81247 | 41033 ft | 520 kts | 142° |
| 2026-04-29 11:14 | 37.36838 | 26.87226 | 41033 ft | 521 kts | 139° |
| 2026-04-29 11:15 | 37.31601 | 26.93537 | 41030 ft | 522 kts | 138° |
| 2026-04-29 11:15 | 37.26383 | 26.99909 | 41028 ft | 522 kts | 138° |
| 2026-04-29 11:16 | 37.21175 | 27.06173 | 41022 ft | 522 kts | 139° |
| 2026-04-29 11:16 | 37.15899 | 27.12450 | 41017 ft | 522 kts | 139° |
| 2026-04-29 11:17 | 37.10656 | 27.18662 | 41014 ft | 522 kts | 139° |
| 2026-04-29 11:17 | 37.05392 | 27.24888 | 41017 ft | 522 kts | 139° |
| 2026-04-29 11:18 | 37.00130 | 27.31105 | 41021 ft | 522 kts | 139° |
| 2026-04-29 11:18 | 36.94832 | 27.37351 | 41015 ft | 522 kts | 139° |
| 2026-04-29 11:19 | 36.89536 | 27.43582 | 41012 ft | 522 kts | 139° |
| 2026-04-29 11:19 | 36.84268 | 27.49767 | 41009 ft | 522 kts | 139° |
| 2026-04-29 11:20 | 36.78959 | 27.55989 | 41000 ft | 522 kts | 140° |
| 2026-04-29 11:20 | 36.73684 | 27.62158 | 40993 ft | 522 kts | 140° |
| 2026-04-29 11:21 | 36.68362 | 27.68370 | 40999 ft | 523 kts | 140° |
| 2026-04-29 11:21 | 36.63126 | 27.74615 | 40994 ft | 523 kts | 137° |
| 2026-04-29 11:22 | 36.58007 | 27.81047 | 40992 ft | 523 kts | 137° |
| 2026-04-29 11:22 | 36.52874 | 27.87503 | 40990 ft | 524 kts | 137° |
| 2026-04-29 11:23 | 36.47718 | 27.93919 | 40994 ft | 524 kts | 138° |
| 2026-04-29 11:23 | 36.42575 | 28.00280 | 40990 ft | 524 kts | 138° |
| 2026-04-29 11:24 | 36.37391 | 28.06671 | 40994 ft | 524 kts | 138° |
| 2026-04-29 11:24 | 36.32232 | 28.13023 | 40992 ft | 527 kts | 138° |
| 2026-04-29 11:25 | 36.27003 | 28.19447 | 40991 ft | 529 kts | 138° |
| 2026-04-29 11:25 | 36.21759 | 28.25879 | 40988 ft | 529 kts | 138° |
| 2026-04-29 11:26 | 36.13926 | 28.35464 | 40987 ft | 529 kts | 137° |
| 2026-04-29 11:26 | 36.08695 | 28.41857 | 40988 ft | 530 kts | 139° |
| 2026-04-29 11:27 | 36.03438 | 28.48256 | 40987 ft | 530 kts | 139° |
| 2026-04-29 11:27 | 35.98181 | 28.54642 | 40993 ft | 530 kts | 139° |
| 2026-04-29 11:28 | 35.92941 | 28.60999 | 40997 ft | 530 kts | 139° |
| 2026-04-29 11:28 | 35.87656 | 28.67398 | 40997 ft | 531 kts | 139° |
| 2026-04-29 11:29 | 35.82387 | 28.73766 | 40997 ft | 531 kts | 139° |
| 2026-04-29 11:29 | 35.77104 | 28.80137 | 40996 ft | 531 kts | 139° |
| 2026-04-29 11:30 | 35.71860 | 28.86451 | 40999 ft | 531 kts | 139° |
| 2026-04-29 11:30 | 35.66573 | 28.92802 | 40998 ft | 532 kts | 139° |
| 2026-04-29 11:31 | 35.61264 | 28.99168 | 40997 ft | 532 kts | 139° |
| 2026-04-29 11:31 | 35.55987 | 29.05483 | 40995 ft | 532 kts | 139° |
| 2026-04-29 11:32 | 35.50669 | 29.11835 | 40997 ft | 532 kts | 139° |
| 2026-04-29 11:32 | 35.45353 | 29.18172 | 40997 ft | 532 kts | 139° |
| 2026-04-29 11:33 | 35.40054 | 29.24476 | 40998 ft | 533 kts | 139° |
| 2026-04-29 11:33 | 35.34728 | 29.30800 | 41001 ft | 533 kts | 139° |
| 2026-04-29 11:34 | 35.29423 | 29.37088 | 41001 ft | 533 kts | 139° |
| 2026-04-29 11:34 | 35.24077 | 29.43411 | 41001 ft | 533 kts | 139° |
| 2026-04-29 11:35 | 35.18768 | 29.49679 | 40999 ft | 533 kts | 139° |
| 2026-04-29 11:35 | 35.13409 | 29.55994 | 41001 ft | 533 kts | 139° |
| 2026-04-29 11:36 | 35.08088 | 29.62251 | 40998 ft | 533 kts | 139° |
| 2026-04-29 11:36 | 35.02720 | 29.68552 | 41002 ft | 533 kts | 139° |
| 2026-04-29 11:37 | 34.97404 | 29.74781 | 40999 ft | 534 kts | 140° |
| 2026-04-29 11:37 | 34.92042 | 29.81054 | 41003 ft | 534 kts | 140° |
| 2026-04-29 11:38 | 34.86666 | 29.87325 | 41003 ft | 534 kts | 140° |
| 2026-04-29 11:38 | 34.81313 | 29.93558 | 40999 ft | 534 kts | 140° |
| 2026-04-29 11:39 | 34.76040 | 29.99940 | 41012 ft | 537 kts | 133° |
| 2026-04-29 11:39 | 34.71596 | 30.07246 | 41001 ft | 539 kts | 127° |
| 2026-04-29 11:40 | 34.67359 | 30.14767 | 41005 ft | 540 kts | 126° |
| 2026-04-29 11:40 | 34.63154 | 30.22279 | 41008 ft | 540 kts | 127° |
| 2026-04-29 11:41 | 34.58902 | 30.29810 | 41007 ft | 539 kts | 127° |
| 2026-04-29 11:41 | 34.54629 | 30.37323 | 41007 ft | 540 kts | 127° |
| 2026-04-29 11:42 | 34.50366 | 30.44794 | 41003 ft | 540 kts | 127° |
| 2026-04-29 11:42 | 34.46108 | 30.52243 | 41003 ft | 540 kts | 127° |
| 2026-04-29 11:43 | 34.41817 | 30.59737 | 41007 ft | 540 kts | 127° |
| 2026-04-29 11:43 | 34.37553 | 30.67169 | 41005 ft | 540 kts | 127° |
| 2026-04-29 11:44 | 34.33261 | 30.74634 | 41006 ft | 540 kts | 127° |
| 2026-04-29 11:44 | 34.28974 | 30.82074 | 41009 ft | 540 kts | 127° |
| 2026-04-29 11:45 | 34.24685 | 30.89503 | 41012 ft | 540 kts | 127° |
| 2026-04-29 11:45 | 34.20373 | 30.96963 | 41012 ft | 540 kts | 127° |
| 2026-04-29 11:46 | 34.16055 | 31.04387 | 41012 ft | 540 kts | 127° |
| 2026-04-29 11:46 | 34.11724 | 31.11818 | 41012 ft | 540 kts | 127° |
| 2026-04-29 11:47 | 34.07413 | 31.19205 | 41011 ft | 540 kts | 127° |
| 2026-04-29 11:47 | 34.03074 | 31.26627 | 41012 ft | 540 kts | 127° |
| 2026-04-29 11:48 | 33.98752 | 31.34008 | 41013 ft | 540 kts | 127° |
| 2026-04-29 11:48 | 33.94411 | 31.41405 | 41016 ft | 540 kts | 127° |
| 2026-04-29 11:49 | 33.90093 | 31.48748 | 41018 ft | 540 kts | 128° |
| 2026-04-29 11:49 | 33.85732 | 31.56147 | 41020 ft | 540 kts | 128° |
| 2026-04-29 11:50 | 33.81397 | 31.63488 | 41020 ft | 540 kts | 128° |
| 2026-04-29 11:50 | 33.77073 | 31.70853 | 41021 ft | 541 kts | 127° |
| 2026-04-29 11:51 | 33.72806 | 31.78330 | 41012 ft | 541 kts | 126° |
| 2026-04-29 11:51 | 33.68576 | 31.85762 | 41019 ft | 541 kts | 127° |
| 2026-04-29 11:52 | 33.64296 | 31.93235 | 41020 ft | 541 kts | 127° |
| 2026-04-29 11:52 | 33.60031 | 32.00645 | 41015 ft | 541 kts | 127° |
| 2026-04-29 11:53 | 33.55731 | 32.08097 | 41019 ft | 541 kts | 127° |
| 2026-04-29 11:53 | 33.51456 | 32.15493 | 41017 ft | 541 kts | 127° |
| 2026-04-29 11:54 | 33.47152 | 32.22922 | 41022 ft | 542 kts | 127° |
| 2026-04-29 11:54 | 33.42875 | 32.30293 | 41023 ft | 542 kts | 127° |
| 2026-04-29 11:55 | 33.38567 | 32.37700 | 41018 ft | 542 kts | 127° |
| 2026-04-29 11:55 | 33.34244 | 32.45120 | 41034 ft | 542 kts | 127° |
| 2026-04-29 11:56 | 33.29940 | 32.52490 | 41027 ft | 542 kts | 127° |
| 2026-04-29 11:56 | 33.25600 | 32.59909 | 41024 ft | 542 kts | 127° |
| 2026-04-29 11:57 | 33.21296 | 32.67252 | 41023 ft | 543 kts | 127° |
| 2026-04-29 11:57 | 33.17681 | 32.73408 | 41037 ft | 543 kts | 127° |
| 2026-04-29 11:58 | 33.12618 | 32.82011 | 41034 ft | 543 kts | 128° |
| 2026-04-29 11:58 | 33.08995 | 32.88157 | 41030 ft | 543 kts | 128° |
| 2026-04-29 11:59 | 33.04663 | 32.95518 | 41031 ft | 543 kts | 128° |
| 2026-04-29 11:59 | 33.00315 | 33.02911 | 41026 ft | 543 kts | 128° |
| 2026-04-29 12:00 | 32.95980 | 33.10263 | 41031 ft | 544 kts | 128° |
| 2026-04-29 12:00 | 32.91611 | 33.17655 | 41029 ft | 544 kts | 128° |
| 2026-04-29 12:01 | 32.86533 | 33.26227 | 41031 ft | 544 kts | 128° |
| 2026-04-29 12:01 | 32.82894 | 33.32358 | 41030 ft | 544 kts | 128° |
| 2026-04-29 12:02 | 32.78542 | 33.39675 | 41033 ft | 544 kts | 128° |
| 2026-04-29 12:02 | 32.74144 | 33.47058 | 41032 ft | 544 kts | 128° |
| 2026-04-29 12:03 | 32.69784 | 33.54361 | 41032 ft | 545 kts | 128° |
| 2026-04-29 12:03 | 32.65413 | 33.61668 | 41032 ft | 545 kts | 128° |
| 2026-04-29 12:04 | 32.61000 | 33.69032 | 41036 ft | 545 kts | 128° |
| 2026-04-29 12:04 | 32.56615 | 33.76335 | 41035 ft | 544 kts | 128° |
| 2026-04-29 12:05 | 32.52230 | 33.83622 | 41037 ft | 545 kts | 128° |
| 2026-04-29 12:05 | 32.47817 | 33.90941 | 41035 ft | 545 kts | 128° |
| 2026-04-29 12:06 | 32.43396 | 33.98261 | 41033 ft | 545 kts | 129° |
| 2026-04-29 12:06 | 32.39007 | 34.05524 | 41030 ft | 546 kts | 128° |
| 2026-04-29 12:07 | 32.35222 | 34.13362 | 41030 ft | 549 kts | 120° |
| 2026-04-29 12:07 | 32.31780 | 34.21395 | 41029 ft | 549 kts | 118° |
| 2026-04-29 12:08 | 32.28372 | 34.29477 | 41027 ft | 549 kts | 118° |
| 2026-04-29 12:08 | 32.24953 | 34.37532 | 41022 ft | 549 kts | 119° |
| 2026-04-29 12:09 | 32.21504 | 34.45608 | 41022 ft | 549 kts | 119° |
| 2026-04-29 12:09 | 32.18054 | 34.53680 | 41019 ft | 550 kts | 118° |
| 2026-04-29 12:10 | 32.15691 | 34.62220 | 41020 ft | 552 kts | 103° |
| 2026-04-29 12:10 | 32.14129 | 34.71116 | 41018 ft | 553 kts | 101° |
| 2026-04-29 12:11 | 32.12695 | 34.80050 | 41021 ft | 553 kts | 101° |
| 2026-04-29 12:11 | 32.11216 | 34.88904 | 41014 ft | 553 kts | 105° |
| 2026-04-29 12:12 | 32.08966 | 34.97570 | 41022 ft | 552 kts | 110° |
| 2026-04-29 12:12 | 32.06507 | 35.06166 | 41020 ft | 552 kts | 110° |
| 2026-04-29 12:13 | 32.04012 | 35.14740 | 41017 ft | 553 kts | 110° |
| 2026-04-29 12:13 | 32.01536 | 35.23265 | 41010 ft | 553 kts | 111° |
| 2026-04-29 12:14 | 31.99039 | 35.31868 | 41000 ft | 553 kts | 110° |
| 2026-04-29 12:14 | 31.96579 | 35.40411 | 40993 ft | 553 kts | 110° |
| 2026-04-29 12:15 | 31.94130 | 35.48996 | 40979 ft | 554 kts | 108° |
| 2026-04-29 12:15 | 31.93406 | 35.53475 | 40998 ft | 555 kts | 95° |
| 2026-04-29 12:15 | 31.93012 | 35.57987 | 40989 ft | 554 kts | 99° |
| 2026-04-29 12:16 | 31.91002 | 35.66660 | 41014 ft | 551 kts | 114° |
| 2026-04-29 12:16 | 31.87912 | 35.74912 | 41032 ft | 549 kts | 118° |
| 2026-04-29 12:17 | 31.84565 | 35.83021 | 41028 ft | 549 kts | 119° |
| 2026-04-29 12:17 | 31.81232 | 35.91061 | 41041 ft | 549 kts | 119° |
| 2026-04-29 12:18 | 31.77912 | 35.99156 | 41043 ft | 550 kts | 118° |
| 2026-04-29 12:18 | 31.74615 | 36.07231 | 41044 ft | 550 kts | 118° |
| 2026-04-29 12:19 | 31.71304 | 36.15334 | 41039 ft | 550 kts | 118° |
| 2026-04-29 12:19 | 31.67984 | 36.23436 | 41030 ft | 550 kts | 119° |
| 2026-04-29 12:20 | 31.64658 | 36.31531 | 41016 ft | 550 kts | 119° |
| 2026-04-29 12:20 | 31.61350 | 36.39563 | 41002 ft | 550 kts | 119° |
| 2026-04-29 12:21 | 31.58012 | 36.47649 | 40995 ft | 550 kts | 119° |
| 2026-04-29 12:21 | 31.54689 | 36.55682 | 40998 ft | 549 kts | 119° |
| 2026-04-29 12:22 | 31.51345 | 36.63745 | 40997 ft | 549 kts | 119° |
| 2026-04-29 12:22 | 31.47996 | 36.71805 | 40997 ft | 549 kts | 119° |
| 2026-04-29 12:23 | 31.44657 | 36.79823 | 40996 ft | 549 kts | 120° |
| 2026-04-29 12:23 | 31.41294 | 36.87881 | 40997 ft | 549 kts | 120° |
| 2026-04-29 12:24 | 31.37935 | 36.95909 | 41008 ft | 549 kts | 120° |
| 2026-04-29 12:24 | 31.34568 | 37.03942 | 41007 ft | 549 kts | 120° |
| 2026-04-29 12:25 | 31.31197 | 37.11965 | 41001 ft | 549 kts | 120° |
| 2026-04-29 12:26 | 31.26220 | 37.23993 | 40994 ft | 551 kts | 115° |
| 2026-04-29 12:26 | 31.23540 | 37.32372 | 40995 ft | 552 kts | 113° |
| 2026-04-29 12:27 | 31.20981 | 37.40852 | 40998 ft | 553 kts | 112° |
| 2026-04-29 12:27 | 31.18442 | 37.49320 | 41005 ft | 552 kts | 112° |
| 2026-04-29 12:28 | 31.15893 | 37.57753 | 41012 ft | 552 kts | 113° |
| 2026-04-29 12:28 | 31.13316 | 37.66235 | 41013 ft | 552 kts | 113° |
| 2026-04-29 12:29 | 31.10752 | 37.74664 | 41022 ft | 552 kts | 113° |
| 2026-04-29 12:29 | 31.08177 | 37.83107 | 41020 ft | 551 kts | 113° |
| 2026-04-29 12:30 | 31.05612 | 37.91494 | 41023 ft | 551 kts | 113° |
| 2026-04-29 12:30 | 31.03023 | 37.99936 | 41024 ft | 551 kts | 113° |
| 2026-04-29 12:31 | 31.00445 | 38.08319 | 41024 ft | 551 kts | 114° |
| 2026-04-29 12:31 | 30.97853 | 38.16729 | 41024 ft | 551 kts | 114° |
| 2026-04-29 12:32 | 30.95261 | 38.25113 | 41025 ft | 551 kts | 114° |
| 2026-04-29 12:32 | 30.92655 | 38.33524 | 41029 ft | 551 kts | 114° |
| 2026-04-29 12:33 | 30.90057 | 38.41885 | 41030 ft | 550 kts | 114° |
| 2026-04-29 12:33 | 30.87459 | 38.50223 | 41028 ft | 550 kts | 114° |
| 2026-04-29 12:34 | 30.84831 | 38.58637 | 41031 ft | 550 kts | 114° |
| 2026-04-29 12:34 | 30.82220 | 38.66975 | 41031 ft | 550 kts | 114° |
| 2026-04-29 12:35 | 30.79592 | 38.75310 | 41025 ft | 549 kts | 116° |
| 2026-04-29 12:35 | 30.76390 | 38.83352 | 41038 ft | 545 kts | 121° |
| 2026-04-29 12:36 | 30.73041 | 38.91204 | 41042 ft | 545 kts | 122° |
| 2026-04-29 12:36 | 30.69638 | 38.99079 | 41043 ft | 545 kts | 122° |
| 2026-04-29 12:37 | 30.66256 | 39.06913 | 41044 ft | 545 kts | 122° |
| 2026-04-29 12:37 | 30.62855 | 39.14795 | 41043 ft | 545 kts | 122° |
| 2026-04-29 12:38 | 30.59472 | 39.22628 | 41047 ft | 544 kts | 122° |
| 2026-04-29 12:38 | 30.56064 | 39.30501 | 41050 ft | 544 kts | 122° |
| 2026-04-29 12:39 | 30.52661 | 39.38348 | 41047 ft | 544 kts | 123° |
| 2026-04-29 12:39 | 30.49267 | 39.46155 | 41052 ft | 544 kts | 123° |
| 2026-04-29 12:40 | 30.45862 | 39.53970 | 41051 ft | 545 kts | 123° |
| 2026-04-29 12:40 | 30.42430 | 39.61833 | 41051 ft | 545 kts | 123° |
| 2026-04-29 12:41 | 30.39084 | 39.69672 | 41052 ft | 547 kts | 121° |
| 2026-04-29 12:41 | 30.35925 | 39.77720 | 41048 ft | 548 kts | 120° |
| 2026-04-29 12:42 | 30.32798 | 39.85749 | 41048 ft | 548 kts | 121° |
| 2026-04-29 12:42 | 30.29621 | 39.93778 | 41046 ft | 548 kts | 121° |
| 2026-04-29 12:43 | 30.26437 | 40.01748 | 41043 ft | 548 kts | 121° |
| 2026-04-29 12:43 | 30.23224 | 40.09757 | 41042 ft | 549 kts | 121° |
| 2026-04-29 12:44 | 30.20023 | 40.17724 | 41040 ft | 549 kts | 122° |
| 2026-04-29 12:44 | 30.16786 | 40.25765 | 41036 ft | 549 kts | 122° |
| 2026-04-29 12:45 | 30.13565 | 40.33753 | 41038 ft | 549 kts | 122° |
| 2026-04-29 12:45 | 30.10346 | 40.41720 | 41039 ft | 549 kts | 122° |
| 2026-04-29 12:46 | 30.07101 | 40.49735 | 41038 ft | 550 kts | 122° |
| 2026-04-29 12:46 | 30.03869 | 40.57696 | 41037 ft | 550 kts | 122° |
| 2026-04-29 12:47 | 30.00613 | 40.65701 | 41036 ft | 550 kts | 122° |
| 2026-04-29 12:47 | 29.97368 | 40.73664 | 41035 ft | 550 kts | 122° |
| 2026-04-29 12:48 | 29.94124 | 40.81606 | 41042 ft | 550 kts | 122° |
| 2026-04-29 12:48 | 29.90855 | 40.89594 | 41036 ft | 550 kts | 122° |
| 2026-04-29 12:48 | 29.89765 | 40.92238 | 41573 ft | 547 kts | 115° |
| 2026-04-29 12:49 | 29.88147 | 40.96133 | 41405 ft | 530 kts | 116° |
| 2026-04-29 12:49 | 29.86096 | 41.01128 | 41068 ft | 509 kts | 115° |
| 2026-04-29 12:49 | 29.85100 | 41.03562 | 41000 ft | 500 kts | 115° |
| 2026-04-29 12:50 | 29.82170 | 41.10718 | 40999 ft | 494 kts | 115° |
| 2026-04-29 12:50 | 29.79217 | 41.17894 | 41000 ft | 494 kts | 116° |
| 2026-04-29 12:51 | 29.76269 | 41.25028 | 41000 ft | 494 kts | 116° |
| 2026-04-29 12:51 | 29.73477 | 41.32218 | 41004 ft | 495 kts | 111° |
| 2026-04-29 12:52 | 29.71093 | 41.39643 | 41000 ft | 495 kts | 110° |
| 2026-04-29 12:52 | 29.68767 | 41.47133 | 40999 ft | 495 kts | 110° |
| 2026-04-29 12:53 | 29.66464 | 41.54561 | 41001 ft | 495 kts | 110° |
| 2026-04-29 12:53 | 29.64141 | 41.62006 | 41000 ft | 495 kts | 110° |
| 2026-04-29 12:54 | 29.61815 | 41.69423 | 40999 ft | 495 kts | 110° |
| 2026-04-29 12:54 | 29.59474 | 41.76872 | 41001 ft | 495 kts | 110° |
| 2026-04-29 12:55 | 29.57141 | 41.84276 | 41001 ft | 495 kts | 110° |
| 2026-04-29 12:55 | 29.54798 | 41.91700 | 41000 ft | 495 kts | 110° |
| 2026-04-29 12:56 | 29.52444 | 41.99140 | 41001 ft | 495 kts | 110° |
| 2026-04-29 12:56 | 29.50099 | 42.06537 | 41001 ft | 495 kts | 110° |
| 2026-04-29 12:57 | 29.47735 | 42.13977 | 41001 ft | 495 kts | 110° |
| 2026-04-29 12:57 | 29.45380 | 42.21370 | 41000 ft | 495 kts | 110° |
| 2026-04-29 12:58 | 29.43019 | 42.28767 | 40999 ft | 495 kts | 110° |
| 2026-04-29 12:58 | 29.40635 | 42.36220 | 40999 ft | 495 kts | 110° |
| 2026-04-29 12:59 | 29.38272 | 42.43593 | 40999 ft | 495 kts | 110° |
| 2026-04-29 12:59 | 29.35888 | 42.51011 | 41000 ft | 495 kts | 110° |
| 2026-04-29 13:00 | 29.33517 | 42.58376 | 41000 ft | 495 kts | 110° |
| 2026-04-29 13:00 | 29.31124 | 42.65790 | 41001 ft | 495 kts | 110° |
| 2026-04-29 13:01 | 29.28741 | 42.73160 | 40999 ft | 495 kts | 110° |
| 2026-04-29 13:01 | 29.26344 | 42.80556 | 41000 ft | 495 kts | 110° |
| 2026-04-29 13:02 | 29.23941 | 42.87955 | 41000 ft | 495 kts | 110° |
| 2026-04-29 13:02 | 29.21545 | 42.95316 | 40999 ft | 495 kts | 110° |
| 2026-04-29 13:03 | 29.19143 | 43.02699 | 40219 ft | 496 kts | 120° |
| 2026-04-29 13:03 | 29.16715 | 43.10035 | 40550 ft | 489 kts | 124° |
| 2026-04-29 13:03 | 29.15184 | 43.13479 | 40799 ft | 480 kts | 129° |
| 2026-04-29 13:04 | 29.13576 | 43.16771 | 40940 ft | 479 kts | 130° |
| 2026-04-29 13:04 | 29.10187 | 43.23402 | 40947 ft | 486 kts | 131° |
| 2026-04-29 13:05 | 29.06723 | 43.30081 | 40947 ft | 494 kts | 130° |
| 2026-04-29 13:05 | 29.03188 | 43.36931 | 40954 ft | 504 kts | 130° |
| 2026-04-29 13:06 | 28.99611 | 43.43888 | 40943 ft | 513 kts | 130° |
| 2026-04-29 13:06 | 28.95973 | 43.50963 | 40937 ft | 523 kts | 129° |
| 2026-04-29 13:07 | 28.92263 | 43.58176 | 40937 ft | 531 kts | 129° |
| 2026-04-29 13:07 | 28.88471 | 43.65522 | 40938 ft | 539 kts | 129° |
| 2026-04-29 13:08 | 28.84671 | 43.72877 | 40931 ft | 540 kts | 129° |
| 2026-04-29 13:08 | 28.80867 | 43.80233 | 40938 ft | 540 kts | 129° |
| 2026-04-29 13:09 | 28.77044 | 43.87603 | 40935 ft | 539 kts | 129° |
| 2026-04-29 13:09 | 28.73216 | 43.94965 | 40931 ft | 539 kts | 129° |
| 2026-04-29 13:10 | 28.69393 | 44.02305 | 40931 ft | 539 kts | 129° |
| 2026-04-29 13:10 | 28.65579 | 44.09614 | 40929 ft | 538 kts | 129° |
| 2026-04-29 13:11 | 28.61750 | 44.16941 | 40929 ft | 538 kts | 129° |
| 2026-04-29 13:11 | 28.57920 | 44.24257 | 40924 ft | 537 kts | 129° |
| 2026-04-29 13:12 | 28.54094 | 44.31552 | 40931 ft | 536 kts | 129° |
| 2026-04-29 13:12 | 28.50287 | 44.38798 | 40933 ft | 536 kts | 129° |
| 2026-04-29 13:13 | 28.46453 | 44.46081 | 40929 ft | 535 kts | 129° |
| 2026-04-29 13:13 | 28.42625 | 44.53341 | 40928 ft | 534 kts | 129° |
| 2026-04-29 13:14 | 28.38826 | 44.60534 | 40932 ft | 534 kts | 129° |
| 2026-04-29 13:14 | 28.34993 | 44.67779 | 40928 ft | 533 kts | 129° |
| 2026-04-29 13:15 | 28.31189 | 44.74957 | 40931 ft | 533 kts | 129° |
| 2026-04-29 13:15 | 28.27360 | 44.82169 | 40931 ft | 532 kts | 129° |
| 2026-04-29 13:16 | 28.23536 | 44.89359 | 40931 ft | 531 kts | 130° |
| 2026-04-29 13:16 | 28.19710 | 44.96542 | 40932 ft | 531 kts | 130° |
| 2026-04-29 13:17 | 28.15916 | 45.03652 | 40935 ft | 530 kts | 130° |
| 2026-04-29 13:17 | 28.12097 | 45.10809 | 40929 ft | 530 kts | 130° |
| 2026-04-29 13:18 | 28.08270 | 45.17965 | 40930 ft | 530 kts | 130° |
| 2026-04-29 13:18 | 28.04472 | 45.25055 | 40929 ft | 529 kts | 130° |
| 2026-04-29 13:19 | 28.00650 | 45.32176 | 40934 ft | 529 kts | 130° |
| 2026-04-29 13:19 | 27.96816 | 45.39310 | 40933 ft | 529 kts | 130° |
| 2026-04-29 13:20 | 27.92992 | 45.46415 | 40944 ft | 528 kts | 130° |
| 2026-04-29 13:20 | 27.89258 | 45.53540 | 40936 ft | 535 kts | 124° |
| 2026-04-29 13:20 | 27.87818 | 45.57469 | 40933 ft | 546 kts | 114° |
| 2026-04-29 13:21 | 27.86772 | 45.61623 | 40931 ft | 550 kts | 111° |
| 2026-04-29 13:21 | 27.84986 | 45.70058 | 40933 ft | 553 kts | 109° |
| 2026-04-29 13:22 | 27.83313 | 45.78494 | 40925 ft | 553 kts | 109° |
| 2026-04-29 13:22 | 27.81602 | 45.86973 | 40923 ft | 552 kts | 110° |
| 2026-04-29 13:23 | 27.79857 | 45.95440 | 40923 ft | 552 kts | 110° |
| 2026-04-29 13:23 | 27.78110 | 46.03842 | 40920 ft | 552 kts | 110° |
| 2026-04-29 13:24 | 27.76344 | 46.12301 | 40912 ft | 552 kts | 110° |
| 2026-04-29 13:24 | 27.74580 | 46.20737 | 40912 ft | 552 kts | 110° |
| 2026-04-29 13:25 | 27.72816 | 46.29176 | 40910 ft | 552 kts | 110° |
| 2026-04-29 13:25 | 27.70185 | 46.41771 | 40911 ft | 552 kts | 110° |
| 2026-04-29 13:26 | 27.68414 | 46.50214 | 40912 ft | 551 kts | 110° |
| 2026-04-29 13:26 | 27.66651 | 46.58587 | 40905 ft | 551 kts | 110° |
| 2026-04-29 13:27 | 27.64873 | 46.67008 | 40904 ft | 551 kts | 110° |
| 2026-04-29 13:27 | 27.63090 | 46.75424 | 40903 ft | 551 kts | 110° |
| 2026-04-29 13:28 | 27.61298 | 46.83855 | 40900 ft | 552 kts | 110° |
| 2026-04-29 13:28 | 27.59514 | 46.92224 | 40894 ft | 552 kts | 110° |
| 2026-04-29 13:29 | 27.57713 | 47.00644 | 40891 ft | 552 kts | 110° |
| 2026-04-29 13:29 | 27.55908 | 47.09057 | 40897 ft | 551 kts | 110° |
| 2026-04-29 13:30 | 27.54110 | 47.17413 | 40893 ft | 551 kts | 110° |
| 2026-04-29 13:30 | 27.52296 | 47.25817 | 40884 ft | 551 kts | 110° |
| 2026-04-29 13:31 | 27.50480 | 47.34206 | 40890 ft | 551 kts | 110° |
| 2026-04-29 13:31 | 27.48669 | 47.42541 | 40885 ft | 550 kts | 110° |
| 2026-04-29 13:32 | 27.46842 | 47.50927 | 40882 ft | 550 kts | 110° |
| 2026-04-29 13:32 | 27.45013 | 47.59296 | 40879 ft | 550 kts | 110° |
| 2026-04-29 13:33 | 27.43069 | 47.67552 | 40876 ft | 546 kts | 114° |
| 2026-04-29 13:33 | 27.40699 | 47.75664 | 40876 ft | 543 kts | 115° |
| 2026-04-29 13:34 | 27.38292 | 47.83723 | 40873 ft | 543 kts | 115° |
| 2026-04-29 13:34 | 27.35948 | 47.91797 | 40871 ft | 543 kts | 114° |
| 2026-04-29 13:35 | 27.33646 | 47.99847 | 40869 ft | 543 kts | 114° |
| 2026-04-29 13:35 | 27.31340 | 48.07924 | 40863 ft | 542 kts | 114° |
| 2026-04-29 13:36 | 27.29109 | 48.16035 | 40865 ft | 543 kts | 112° |
| 2026-04-29 13:36 | 27.26984 | 48.24191 | 40863 ft | 543 kts | 112° |
| 2026-04-29 13:37 | 27.24851 | 48.32347 | 40861 ft | 543 kts | 112° |
| 2026-04-29 13:37 | 27.22692 | 48.40492 | 40861 ft | 543 kts | 112° |
| 2026-04-29 13:38 | 27.20530 | 48.48591 | 40858 ft | 543 kts | 112° |
| 2026-04-29 13:38 | 27.18360 | 48.56695 | 40855 ft | 542 kts | 112° |
| 2026-04-29 13:39 | 27.16195 | 48.64764 | 40856 ft | 542 kts | 112° |
| 2026-04-29 13:39 | 27.14011 | 48.72885 | 40855 ft | 541 kts | 112° |
| 2026-04-29 13:40 | 27.11846 | 48.80915 | 40852 ft | 540 kts | 112° |
| 2026-04-29 13:40 | 27.09971 | 48.89118 | 40852 ft | 547 kts | 102° |
| 2026-04-29 13:41 | 27.09345 | 48.97610 | 40853 ft | 549 kts | 97° |
| 2026-04-29 13:41 | 27.08979 | 49.06198 | 40822 ft | 548 kts | 96° |
| 2026-04-29 13:42 | 27.08852 | 49.10464 | 40300 ft | 546 kts | 96° |
| 2026-04-29 13:42 | 27.08746 | 49.14689 | 39534 ft | 551 kts | 95° |
| 2026-04-29 13:42 | 27.08641 | 49.19020 | 38728 ft | 556 kts | 95° |
| 2026-04-29 13:42 | 27.08533 | 49.23392 | 37810 ft | 561 kts | 95° |
| 2026-04-29 13:43 | 27.08419 | 49.27792 | 36862 ft | 567 kts | 96° |
| 2026-04-29 13:43 | 27.08339 | 49.30731 | 36245 ft | 570 kts | 96° |
| 2026-04-29 13:43 | 27.08173 | 49.36678 | 35021 ft | 577 kts | 96° |
| 2026-04-29 13:43 | 27.08043 | 49.41191 | 34156 ft | 582 kts | 96° |
| 2026-04-29 13:44 | 27.07911 | 49.45749 | 33370 ft | 583 kts | 96° |
| 2026-04-29 13:44 | 27.07823 | 49.48766 | 32907 ft | 581 kts | 96° |
| 2026-04-29 13:44 | 27.07647 | 49.54773 | 32076 ft | 577 kts | 96° |
| 2026-04-29 13:44 | 27.07558 | 49.57765 | 31667 ft | 575 kts | 96° |
| 2026-04-29 13:45 | 27.07379 | 49.63721 | 30853 ft | 572 kts | 96° |
| 2026-04-29 13:45 | 27.07287 | 49.66735 | 30457 ft | 570 kts | 96° |
| 2026-04-29 13:45 | 27.07151 | 49.71116 | 29899 ft | 566 kts | 96° |
| 2026-04-29 13:45 | 27.07013 | 49.75517 | 29287 ft | 561 kts | 96° |
| 2026-04-29 13:46 | 27.06875 | 49.79878 | 28782 ft | 555 kts | 96° |
| 2026-04-29 13:46 | 27.06737 | 49.84195 | 28287 ft | 548 kts | 96° |
| 2026-04-29 13:46 | 27.06602 | 49.88397 | 27797 ft | 541 kts | 96° |
| 2026-04-29 13:46 | 27.06464 | 49.92621 | 27300 ft | 535 kts | 96° |
| 2026-04-29 13:47 | 27.06328 | 49.96771 | 26804 ft | 529 kts | 96° |
| 2026-04-29 13:47 | 27.06193 | 50.00822 | 26324 ft | 523 kts | 96° |
| 2026-04-29 13:47 | 27.06056 | 50.04894 | 25831 ft | 517 kts | 96° |
| 2026-04-29 13:47 | 27.05921 | 50.08910 | 25345 ft | 512 kts | 96° |
| 2026-04-29 13:48 | 27.05785 | 50.12873 | 24870 ft | 506 kts | 96° |
| 2026-04-29 13:48 | 27.05650 | 50.16810 | 24392 ft | 500 kts | 96° |
| 2026-04-29 13:48 | 27.05517 | 50.20661 | 23923 ft | 495 kts | 96° |
| 2026-04-29 13:48 | 27.05383 | 50.24511 | 23452 ft | 490 kts | 96° |
| 2026-04-29 13:49 | 27.05250 | 50.28274 | 22895 ft | 485 kts | 96° |
| 2026-04-29 13:49 | 27.05117 | 50.32035 | 22307 ft | 480 kts | 96° |
| 2026-04-29 13:49 | 27.04917 | 50.35746 | 21703 ft | 473 kts | 102° |
| 2026-04-29 13:49 | 27.04097 | 50.39265 | 21147 ft | 461 kts | 115° |
| 2026-04-29 13:50 | 27.02942 | 50.42588 | 20505 ft | 447 kts | 117° |
| 2026-04-29 13:50 | 27.01784 | 50.45723 | 19339 ft | 436 kts | 117° |
| 2026-04-29 13:50 | 27.00602 | 50.48855 | 18181 ft | 430 kts | 117° |
| 2026-04-29 13:50 | 26.99410 | 50.51872 | 17257 ft | 411 kts | 122° |
| 2026-04-29 13:51 | 26.97806 | 50.54372 | 16402 ft | 384 kts | 141° |
| 2026-04-29 13:51 | 26.95869 | 50.56293 | 15917 ft | 362 kts | 149° |
| 2026-04-29 13:51 | 26.93855 | 50.57861 | 15631 ft | 351 kts | 153° |
| 2026-04-29 13:51 | 26.91801 | 50.59379 | 14933 ft | 355 kts | 153° |
| 2026-04-29 13:52 | 26.89729 | 50.60889 | 14412 ft | 354 kts | 153° |
| 2026-04-29 13:52 | 26.87696 | 50.62366 | 13953 ft | 351 kts | 153° |
| 2026-04-29 13:52 | 26.85649 | 50.63849 | 13510 ft | 347 kts | 153° |
| 2026-04-29 13:52 | 26.83624 | 50.65313 | 13218 ft | 344 kts | 153° |
| 2026-04-29 13:53 | 26.81667 | 50.66729 | 12955 ft | 333 kts | 153° |
| 2026-04-29 13:53 | 26.79740 | 50.68130 | 12699 ft | 323 kts | 153° |
| 2026-04-29 13:53 | 26.77880 | 50.69487 | 12439 ft | 314 kts | 153° |
| 2026-04-29 13:53 | 26.76094 | 50.70794 | 12187 ft | 306 kts | 153° |
| 2026-04-29 13:54 | 26.74328 | 50.72089 | 11941 ft | 300 kts | 153° |
| 2026-04-29 13:54 | 26.72575 | 50.73372 | 11689 ft | 298 kts | 153° |
| 2026-04-29 13:54 | 26.70837 | 50.74642 | 11439 ft | 298 kts | 153° |
| 2026-04-29 13:54 | 26.69124 | 50.75890 | 11191 ft | 297 kts | 153° |
| 2026-04-29 13:55 | 26.67393 | 50.77149 | 10976 ft | 296 kts | 153° |
| 2026-04-29 13:55 | 26.65661 | 50.78404 | 10732 ft | 295 kts | 153° |
| 2026-04-29 13:55 | 26.63930 | 50.79655 | 10493 ft | 295 kts | 153° |
| 2026-04-29 13:55 | 26.62224 | 50.80885 | 10257 ft | 294 kts | 153° |
| 2026-04-29 13:56 | 26.60501 | 50.82123 | 10026 ft | 293 kts | 153° |
| 2026-04-29 13:56 | 26.58787 | 50.83355 | 9795 ft | 292 kts | 153° |
| 2026-04-29 13:56 | 26.57103 | 50.84563 | 9556 ft | 291 kts | 153° |
| 2026-04-29 13:56 | 26.55399 | 50.85777 | 9304 ft | 289 kts | 153° |
| 2026-04-29 13:57 | 26.53694 | 50.86977 | 9056 ft | 287 kts | 153° |
| 2026-04-29 13:57 | 26.51993 | 50.88157 | 8803 ft | 286 kts | 153° |
| 2026-04-29 13:57 | 26.50302 | 50.89316 | 8563 ft | 284 kts | 153° |
| 2026-04-29 13:57 | 26.48640 | 50.90444 | 8315 ft | 283 kts | 153° |
| 2026-04-29 13:58 | 26.46946 | 50.91581 | 8065 ft | 281 kts | 153° |
| 2026-04-29 13:58 | 26.45270 | 50.92700 | 7814 ft | 279 kts | 153° |
| 2026-04-29 13:58 | 26.43617 | 50.93791 | 7602 ft | 278 kts | 153° |
| 2026-04-29 13:58 | 26.41945 | 50.94873 | 7354 ft | 276 kts | 153° |
| 2026-04-29 13:59 | 26.40270 | 50.95941 | 7112 ft | 275 kts | 153° |
| 2026-04-29 13:59 | 26.38629 | 50.96973 | 6885 ft | 273 kts | 153° |
| 2026-04-29 13:59 | 26.36967 | 50.98004 | 6648 ft | 271 kts | 153° |
| 2026-04-29 13:59 | 26.35309 | 50.99018 | 6409 ft | 270 kts | 153° |
| 2026-04-29 14:00 | 26.33666 | 50.99940 | 6173 ft | 266 kts | 160° |
| 2026-04-29 14:00 | 26.31875 | 51.00258 | 5933 ft | 258 kts | 179° |
| 2026-04-29 14:00 | 26.30096 | 51.00189 | 5682 ft | 252 kts | 182° |
| 2026-04-29 14:00 | 26.28364 | 51.00060 | 5444 ft | 247 kts | 182° |
| 2026-04-29 14:01 | 26.26660 | 50.99919 | 5195 ft | 242 kts | 182° |
| 2026-04-29 14:01 | 26.25049 | 50.99478 | 4960 ft | 245 kts | 205° |
| 2026-04-29 14:01 | 26.23737 | 50.98240 | 4771 ft | 250 kts | 228° |
| 2026-04-29 14:01 | 26.22677 | 50.96684 | 4615 ft | 252 kts | 232° |
| 2026-04-29 14:02 | 26.21659 | 50.95087 | 4425 ft | 254 kts | 233° |
| 2026-04-29 14:02 | 26.20649 | 50.93498 | 4269 ft | 255 kts | 232° |
| 2026-04-29 14:02 | 26.19619 | 50.91880 | 4105 ft | 255 kts | 233° |
| 2026-04-29 14:02 | 26.18584 | 50.90271 | 3924 ft | 255 kts | 233° |
| 2026-04-29 14:03 | 26.17554 | 50.88683 | 3759 ft | 256 kts | 233° |
| 2026-04-29 14:03 | 26.16551 | 50.87054 | 3508 ft | 251 kts | 240° |
| 2026-04-29 14:03 | 26.16066 | 50.85216 | 3283 ft | 246 kts | 263° |
| 2026-04-29 14:03 | 26.16051 | 50.83347 | 3041 ft | 238 kts | 281° |
| 2026-04-29 14:04 | 26.16524 | 50.81614 | 2791 ft | 231 kts | 300° |
| 2026-04-29 14:04 | 26.17379 | 50.80156 | 2566 ft | 224 kts | 309° |
| 2026-04-29 14:04 | 26.18260 | 50.78734 | 2322 ft | 221 kts | 305° |
| 2026-04-29 14:04 | 26.19075 | 50.77288 | 2083 ft | 218 kts | 306° |
| 2026-04-29 14:05 | 26.19880 | 50.75873 | 1852 ft | 215 kts | 306° |
| 2026-04-29 14:05 | 26.20664 | 50.74503 | 1650 ft | 208 kts | 306° |
| 2026-04-29 14:05 | 26.21431 | 50.73168 | 1491 ft | 198 kts | 306° |
| 2026-04-29 14:05 | 26.22139 | 50.71937 | 1453 ft | 179 kts | 307° |
| 2026-04-29 14:06 | 26.22786 | 50.70817 | 1251 ft | 165 kts | 307° |
| 2026-04-29 14:06 | 26.23379 | 50.69789 | 1047 ft | 155 kts | 308° |
| 2026-04-29 14:06 | 26.23941 | 50.68811 | 860 ft | 144 kts | 308° |
| 2026-04-29 14:06 | 26.24457 | 50.67916 | 686 ft | 133 kts | 307° |
| 2026-04-29 14:07 | 26.24956 | 50.67055 | 537 ft | 132 kts | 306° |
| 2026-04-29 14:07 | 26.25457 | 50.66200 | 402 ft | 130 kts | 305° |
| 2026-04-29 14:07 | 26.25938 | 50.65360 | 216 ft | 126 kts | 304° |
| 2026-04-29 14:07 | 26.26398 | 50.64541 | 49 ft | 126 kts | 305° |
| 2026-04-29 14:08 | 26.26857 | 50.63765 | 25 ft | 101 kts | 303° |
| 2026-04-29 14:08 | 26.27078 | 50.63370 | 20 ft | 41 kts | 302° |
| 2026-04-29 14:08 | 26.27221 | 50.63112 | 22 ft | 34 kts | 296° |
| 2026-04-29 14:08 | 26.27256 | 50.62916 | 23 ft | 18 kts | 270° |
| 2026-04-29 14:09 | 26.27259 | 50.62782 | 29 ft | 9 kts | 271° |
| 2026-04-29 14:09 | 26.27259 | 50.62780 | 29 ft | 0 kts | 272° |
| 2026-04-29 14:10 | 26.27259 | 50.62778 | 29 ft | 2 kts | 272° |
| 2026-04-29 14:10 | 26.27265 | 50.62726 | 25 ft | 11 kts | 282° |
| 2026-04-29 14:10 | 26.27225 | 50.62643 | 25 ft | 13 kts | 209° |
| 2026-04-29 14:10 | 26.27154 | 50.62608 | 26 ft | 6 kts | 209° |
| 2026-04-29 14:11 | 26.27118 | 50.62584 | 29 ft | 7 kts | 212° |
| 2026-04-29 14:11 | 26.27107 | 50.62576 | 29 ft | 0 kts | 214° |
| 2026-04-29 14:11 | 26.27103 | 50.62572 | 28 ft | 0 kts | 213° |